Time;durP1;ratioP1;P1;durP2;ratioP2;P2;SDS_P1;SDS_P2;PMS_P1;PMS_P2;Temp;Humidity;BMP_temperature;BMP_pressure;BME280_temperature;BME280_humidity;BME280_pressure;Samples;Min_cycle;Max_cycle;Signal;HPM_P1;HPM_P2
2023/09/18 00:00:25;;;;;;;32.80;10.68;;;24.50;99.90;;;;;;7398720;19;19918;-71
2023/09/18 00:02:50;;;;;;;27.30;10.25;;;24.40;99.90;;;;;;7399891;19;19987;-71
2023/09/18 00:05:16;;;;;;;36.08;10.07;;;24.40;99.90;;;;;;7401086;19;19922;-71
2023/09/18 00:07:43;;;;;;;26.10;9.98;;;24.50;99.90;;;;;;7399628;19;19942;-70
2023/09/18 00:10:13;;;;;;;27.58;9.45;;;24.50;99.90;;;;;;7399135;19;19915;-70
2023/09/18 00:12:40;;;;;;;24.38;10.00;;;24.50;99.90;;;;;;7400315;19;19919;-70
2023/09/18 00:15:08;;;;;;;31.73;9.65;;;24.50;99.90;;;;;;7397878;19;20781;-70
2023/09/18 00:17:35;;;;;;;27.90;10.73;;;24.50;99.90;;;;;;7397857;19;20335;-71
2023/09/18 00:20:02;;;;;;;26.27;9.00;;;24.50;99.90;;;;;;7399684;19;19927;-70
2023/09/18 00:22:29;;;;;;;26.75;9.80;;;24.50;99.90;;;;;;7399580;19;19906;-71
2023/09/18 00:24:54;;;;;;;28.67;9.40;;;24.50;99.90;;;;;;7401011;19;19943;-70
2023/09/18 00:27:20;;;;;;;22.95;8.80;;;24.50;99.90;;;;;;7395951;19;19942;-70
2023/09/18 00:29:46;;;;;;;22.85;9.00;;;24.60;99.90;;;;;;7399467;19;19935;-71
2023/09/18 00:32:12;;;;;;;28.42;10.02;;;24.60;99.90;;;;;;7395803;19;19942;-70
2023/09/18 00:34:38;;;;;;;28.38;8.20;;;24.60;99.60;;;;;;7400911;19;19919;-70
2023/09/18 00:37:03;;;;;;;27.17;9.65;;;24.60;99.60;;;;;;7397590;19;19914;-71
2023/09/18 00:39:30;;;;;;;26.30;8.93;;;24.60;98.20;;;;;;7398662;19;19914;-72
2023/09/18 00:41:56;;;;;;;24.63;9.38;;;24.60;97.90;;;;;;7398802;19;19945;-70
2023/09/18 00:44:24;;;;;;;23.80;7.82;;;24.70;97.20;;;;;;7399033;19;20375;-71
2023/09/18 00:46:51;;;;;;;30.10;8.38;;;24.70;96.50;;;;;;7399494;19;19922;-71
2023/09/18 00:49:18;;;;;;;23.63;5.80;;;24.70;95.90;;;;;;7398523;19;19948;-71
2023/09/18 00:51:45;;;;;;;24.45;8.00;;;24.80;95.50;;;;;;7398900;19;19925;-72
2023/09/18 00:54:11;;;;;;;28.10;8.35;;;24.70;95.60;;;;;;7395633;19;20303;-73
2023/09/18 00:56:37;;;;;;;;;;;24.70;95.70;;;;;;7400301;19;19922;-72
2023/09/18 00:59:03;;;;;;;26.67;7.93;;;24.70;95.70;;;;;;7397678;19;19982;-72
2023/09/18 01:01:29;;;;;;;33.70;8.45;;;24.70;95.80;;;;;;7396443;19;19926;-70
2023/09/18 01:03:56;;;;;;;25.67;7.32;;;24.70;96.00;;;;;;7397347;19;19982;-72
2023/09/18 01:06:27;;;;;;;25.67;7.03;;;24.70;95.70;;;;;;7397809;19;19922;-71
2023/09/18 01:08:54;;;;;;;29.23;7.40;;;24.70;95.40;;;;;;7398439;19;20244;-72
2023/09/18 01:11:40;;;;;;;30.33;7.78;;;24.70;95.30;;;;;;7398070;19;19919;-70
2023/09/18 01:14:34;;;;;;;21.92;7.75;;;24.70;95.00;;;;;;7396103;19;19919;-72
2023/09/18 01:17:04;;;;;;;25.55;7.57;;;24.70;95.10;;;;;;7399056;19;19929;-69
2023/09/18 01:19:41;;;;;;;20.00;7.18;;;24.70;94.80;;;;;;7395416;19;20008;-73
2023/09/18 01:22:09;;;;;;;22.73;8.05;;;24.70;94.80;;;;;;7398420;19;20398;-70
2023/09/18 01:24:37;;;;;;;25.48;8.65;;;24.70;94.80;;;;;;7396619;19;20588;-70
2023/09/18 01:27:04;;;;;;;25.05;7.45;;;24.70;94.70;;;;;;7395987;19;19926;-70
2023/09/18 01:29:30;;;;;;;26.98;8.40;;;24.70;94.80;;;;;;7396133;19;19919;-69
2023/09/18 01:31:57;;;;;;;;;;;24.70;94.80;;;;;;7409561;19;19978;-70
2023/09/18 01:34:28;;;;;;;22.90;7.40;;;24.70;94.90;;;;;;7403445;19;19921;-70
2023/09/18 01:36:56;;;;;;;20.73;6.88;;;24.70;94.90;;;;;;7406863;19;19914;-70
2023/09/18 01:39:23;;;;;;;24.70;5.93;;;24.70;94.70;;;;;;7401490;19;20306;-71
2023/09/18 01:41:50;;;;;;;21.30;6.38;;;24.70;94.80;;;;;;7404740;19;19974;-71
2023/09/18 01:44:16;;;;;;;22.08;7.00;;;24.70;94.60;;;;;;7403193;19;20375;-70
2023/09/18 01:46:43;;;;;;;20.58;6.75;;;24.70;94.80;;;;;;7401628;19;19927;-70
2023/09/18 01:49:09;;;;;;;23.77;7.70;;;24.70;95.00;;;;;;7378453;19;19977;-70
2023/09/18 01:51:36;;;;;;;21.75;8.10;;;24.60;95.30;;;;;;7404408;19;19919;-70
2023/09/18 01:54:01;;;;;;;22.42;7.03;;;24.60;95.40;;;;;;7404945;19;19948;-71
2023/09/18 01:56:27;;;;;;;29.35;8.50;;;24.70;95.10;;;;;;7403991;19;20620;-70
2023/09/18 01:58:53;;;;;;;23.27;7.53;;;24.60;95.20;;;;;;7403210;19;19928;-71
2023/09/18 02:01:19;;;;;;;19.95;7.00;;;24.60;95.30;;;;;;7401508;19;19915;-71
2023/09/18 02:03:45;;;;;;;22.33;7.28;;;24.50;95.60;;;;;;7403281;19;19922;-73
2023/09/18 02:06:12;;;;;;;26.15;8.20;;;24.50;95.70;;;;;;7401477;19;19918;-71
2023/09/18 02:08:37;;;;;;;26.42;6.82;;;24.50;96.00;;;;;;7404363;19;20251;-72
2023/09/18 02:11:04;;;;;;;26.10;8.20;;;24.50;96.20;;;;;;7400536;19;20011;-70
2023/09/18 02:13:30;;;;;;;24.08;8.82;;;24.40;96.20;;;;;;7405536;19;19923;-69
2023/09/18 02:15:56;;;;;;;21.35;6.90;;;24.50;96.10;;;;;;7401454;19;19913;-71
2023/09/18 02:18:22;;;;;;;20.25;6.82;;;24.40;96.10;;;;;;7404059;19;20018;-72
2023/09/18 02:20:49;;;;;;;25.60;7.38;;;24.40;96.10;;;;;;7402313;19;20301;-70
2023/09/18 02:23:19;;;;;;;25.55;8.00;;;24.40;96.10;;;;;;7382685;19;19927;-70
2023/09/18 02:25:45;;;;;;;23.42;7.50;;;24.40;96.20;;;;;;7402906;19;19951;-71
2023/09/18 02:28:10;;;;;;;28.23;7.60;;;24.40;96.10;;;;;;7402398;19;20336;-71
2023/09/18 02:30:36;;;;;;;24.73;7.78;;;24.30;96.30;;;;;;7402926;19;19925;-72
2023/09/18 02:33:05;;;;;;;24.60;7.63;;;24.30;96.20;;;;;;7403432;19;19932;-70
2023/09/18 02:35:31;;;;;;;25.73;8.27;;;24.30;96.40;;;;;;7400885;19;19977;-71
2023/09/18 02:37:56;;;;;;;30.58;7.72;;;24.30;96.30;;;;;;7404844;19;20446;-70
2023/09/18 02:40:22;;;;;;;28.25;7.65;;;24.30;95.80;;;;;;7403727;19;20283;-71
2023/09/18 02:42:48;;;;;;;27.67;7.95;;;24.30;95.70;;;;;;7401464;19;19914;-71
2023/09/18 02:45:14;;;;;;;26.80;7.40;;;24.30;95.50;;;;;;7401184;19;19922;-70
2023/09/18 02:47:41;;;;;;;30.85;7.18;;;24.40;94.80;;;;;;7404055;19;19929;-71
2023/09/18 02:50:07;;;;;;;39.00;8.23;;;24.40;94.50;;;;;;7400946;19;20387;-71
2023/09/18 02:52:33;;;;;;;27.35;8.13;;;24.50;93.80;;;;;;7404922;19;19917;-71
2023/09/18 02:54:59;;;;;;;33.33;8.27;;;24.50;93.80;;;;;;7401038;19;20723;-71
2023/09/18 02:57:25;;;;;;;29.70;7.65;;;24.50;93.20;;;;;;7402900;19;19923;-71
2023/09/18 02:59:50;;;;;;;33.00;9.77;;;24.50;93.10;;;;;;7400206;19;19919;-71
2023/09/18 03:02:16;;;;;;;34.20;8.15;;;24.50;93.10;;;;;;7400758;19;19918;-70
2023/09/18 03:04:42;;;;;;;27.23;9.27;;;24.50;93.20;;;;;;7401418;19;19982;-71
2023/09/18 03:07:08;;;;;;;32.05;8.35;;;24.50;93.40;;;;;;7402263;19;20256;-70
2023/09/18 03:09:35;;;;;;;28.35;8.45;;;24.40;94.10;;;;;;7400411;19;19910;-70
2023/09/18 03:12:02;;;;;;;30.50;8.68;;;24.30;94.70;;;;;;7401274;19;19915;-70
2023/09/18 03:14:27;;;;;;;25.77;6.80;;;24.20;95.40;;;;;;7399946;19;20663;-69
2023/09/18 03:16:53;;;;;;;23.92;8.20;;;24.20;96.30;;;;;;7402185;19;19918;-71
2023/09/18 03:19:19;;;;;;;24.52;8.07;;;24.20;96.10;;;;;;7400919;19;20310;-70
2023/09/18 03:21:45;;;;;;;21.60;6.88;;;24.10;96.20;;;;;;7402053;19;20417;-72
2023/09/18 03:24:10;;;;;;;21.70;7.85;;;24.10;95.60;;;;;;7398968;19;19926;-71
2023/09/18 03:26:36;;;;;;;24.23;8.48;;;24.10;95.70;;;;;;7402723;19;19923;-70
2023/09/18 03:29:02;;;;;;;26.02;8.10;;;24.00;95.70;;;;;;7400745;19;19933;-71
2023/09/18 03:31:29;;;;;;;25.48;8.50;;;24.00;95.90;;;;;;7401017;19;19931;-71
2023/09/18 03:33:54;;;;;;;24.33;7.82;;;24.10;95.70;;;;;;7401904;19;19925;-70
2023/09/18 03:36:23;;;;;;;23.27;7.75;;;24.00;95.40;;;;;;7400126;19;19910;-71
2023/09/18 03:38:49;;;;;;;26.58;8.30;;;24.00;95.70;;;;;;7400062;19;19932;-71
2023/09/18 03:41:15;;;;;;;22.50;8.45;;;24.00;95.40;;;;;;7402585;19;19907;-71
2023/09/18 03:43:41;;;;;;;30.45;9.07;;;24.00;95.70;;;;;;7401442;19;20386;-71
2023/09/18 03:46:07;;;;;;;24.17;8.68;;;24.00;96.30;;;;;;7398689;19;19946;-70
2023/09/18 03:48:37;;;;;;;28.05;10.60;;;24.00;97.20;;;;;;7400897;19;19924;-71
2023/09/18 03:51:06;;;;;;;31.25;11.10;;;23.80;99.40;;;;;;7401054;19;19922;-69
2023/09/18 03:53:35;;;;;;;28.38;10.15;;;23.70;99.90;;;;;;7400698;19;20031;-70
2023/09/18 03:56:01;;;;;;;27.70;10.25;;;23.60;99.90;;;;;;7401128;19;19922;-71
2023/09/18 03:58:27;;;;;;;25.15;9.65;;;23.60;99.90;;;;;;7400269;19;19922;-70
2023/09/18 04:00:53;;;;;;;22.83;9.55;;;23.60;99.90;;;;;;7401461;19;19918;-71
2023/09/18 04:03:19;;;;;;;27.77;9.65;;;23.60;99.90;;;;;;7399362;19;19919;-72
2023/09/18 04:05:45;;;;;;;29.20;9.88;;;23.50;99.70;;;;;;7399848;19;19918;-70
2023/09/18 04:08:11;;;;;;;20.83;8.50;;;23.50;99.80;;;;;;7399075;19;19914;-71
2023/09/18 04:10:37;;;;;;;27.85;9.63;;;23.50;99.60;;;;;;7401886;19;19915;-70
2023/09/18 04:13:03;;;;;;;28.35;9.82;;;23.40;99.40;;;;;;7399555;19;19919;-71
2023/09/18 04:15:30;;;;;;;25.08;8.15;;;23.40;99.00;;;;;;7398725;19;19935;-72
2023/09/18 04:17:56;;;;;;;22.75;9.48;;;23.50;98.50;;;;;;7398601;19;19918;-71
2023/09/18 04:20:25;;;;;;;29.70;9.18;;;23.50;98.50;;;;;;7399149;19;19915;-70
2023/09/18 04:23:18;;;;;;;33.38;9.48;;;23.50;98.20;;;;;;7400846;19;19915;-71
2023/09/18 04:25:48;;;;;;;25.88;6.90;;;23.50;97.80;;;;;;7399398;19;19957;-71
2023/09/18 04:28:19;;;;;;;29.55;8.93;;;23.60;97.20;;;;;;7397844;19;19917;-72
2023/09/18 04:30:45;;;;;;;22.45;8.75;;;23.60;97.80;;;;;;7399209;19;20607;-72
2023/09/18 04:33:14;;;;;;;23.38;8.25;;;23.60;97.40;;;;;;7398126;19;19974;-71
2023/09/18 04:35:40;;;;;;;26.77;8.73;;;23.60;97.20;;;;;;7400898;19;19970;-71
2023/09/18 04:38:10;;;;;;;30.05;8.20;;;23.50;96.60;;;;;;7399273;19;19915;-71
2023/09/18 04:40:37;;;;;;;31.52;7.78;;;23.50;96.00;;;;;;7399049;19;19935;-71
2023/09/18 04:43:06;;;;;;;22.15;7.57;;;23.50;95.20;;;;;;7398965;19;19950;-70
2023/09/18 04:45:32;;;;;;;24.52;8.65;;;23.60;93.90;;;;;;7391452;19;20347;-71
2023/09/18 04:47:58;;;;;;;25.38;7.30;;;23.60;94.40;;;;;;7398929;19;19929;-71
2023/09/18 04:50:26;;;;;;;25.05;7.35;;;23.60;94.00;;;;;;7399991;19;20306;-71
2023/09/18 04:52:54;;;;;;;25.77;8.45;;;23.50;93.90;;;;;;7398303;19;19919;-72
2023/09/18 04:55:21;;;;;;;25.33;7.75;;;23.50;94.40;;;;;;7397256;19;19946;-72
2023/09/18 04:57:46;;;;;;;24.02;7.80;;;23.50;94.50;;;;;;7399747;19;19914;-71
2023/09/18 05:00:13;;;;;;;22.35;7.85;;;23.50;94.40;;;;;;7397418;19;19919;-71
2023/09/18 05:02:40;;;;;;;27.17;8.05;;;23.50;94.10;;;;;;7397208;19;19935;-71
2023/09/18 05:05:08;;;;;;;25.83;7.65;;;23.50;94.20;;;;;;7398283;19;19926;-71
2023/09/18 05:07:34;;;;;;;20.85;7.60;;;23.50;94.00;;;;;;7405389;19;19918;-72
2023/09/18 05:10:00;;;;;;;24.42;7.57;;;23.50;94.00;;;;;;7407682;19;19911;-71
2023/09/18 05:12:26;;;;;;;23.15;7.60;;;23.50;93.90;;;;;;7403599;19;19952;-72
2023/09/18 05:14:52;;;;;;;27.20;7.95;;;23.50;94.10;;;;;;7406859;19;19986;-72
2023/09/18 05:17:18;;;;;;;24.33;7.57;;;23.50;94.20;;;;;;7403291;19;19922;-71
2023/09/18 05:19:44;;;;;;;28.42;9.23;;;23.60;94.40;;;;;;7407590;19;19984;-72
2023/09/18 05:22:10;;;;;;;28.05;7.35;;;23.50;94.40;;;;;;7402723;19;19918;-75
2023/09/18 05:24:38;;;;;;;27.30;8.18;;;23.50;94.60;;;;;;7406845;19;19922;-71
2023/09/18 05:27:06;;;;;;;22.90;8.57;;;23.60;94.70;;;;;;7406411;19;19914;-71
2023/09/18 05:29:32;;;;;;;32.40;8.73;;;23.50;94.70;;;;;;7404348;19;19921;-71
2023/09/18 05:31:58;;;;;;;25.55;8.95;;;23.60;94.80;;;;;;7406019;19;20003;-72
2023/09/18 05:34:23;;;;;;;20.35;7.88;;;23.50;94.80;;;;;;7404562;19;20015;-71
2023/09/18 05:36:49;;;;;;;27.02;8.23;;;23.60;94.90;;;;;;7403387;19;19923;-72
2023/09/18 05:39:16;;;;;;;21.30;7.65;;;23.70;95.00;;;;;;7406199;19;19937;-72
2023/09/18 05:41:42;;;;;;;27.65;8.90;;;23.60;95.10;;;;;;7403558;19;19933;-72
2023/09/18 05:44:09;;;;;;;20.15;7.70;;;23.70;95.10;;;;;;7401420;19;19922;-71
2023/09/18 05:46:36;;;;;;;28.58;8.68;;;23.70;95.20;;;;;;7398867;19;19934;-71
2023/09/18 05:49:02;;;;;;;26.58;7.93;;;23.70;95.30;;;;;;7404525;19;19930;-72
2023/09/18 05:51:29;;;;;;;22.48;8.48;;;23.70;95.40;;;;;;7404649;19;19922;-72
2023/09/18 05:53:56;;;;;;;31.30;9.25;;;23.70;95.40;;;;;;7404161;19;19929;-72
2023/09/18 05:56:23;;;;;;;30.52;9.32;;;23.70;95.70;;;;;;7402346;19;19919;-71
2023/09/18 05:58:49;;;;;;;25.90;9.57;;;23.70;95.50;;;;;;7404033;19;19926;-72
2023/09/18 06:01:15;;;;;;;25.60;9.55;;;23.70;95.60;;;;;;7402320;19;19943;-71
2023/09/18 06:03:41;;;;;;;28.92;8.52;;;23.70;95.50;;;;;;7379499;19;19922;-72
2023/09/18 06:06:08;;;;;;;26.02;8.75;;;23.70;95.50;;;;;;7399917;19;19955;-72
2023/09/18 06:08:34;;;;;;;25.88;7.88;;;23.70;95.40;;;;;;7400950;19;20034;-72
2023/09/18 06:11:00;;;;;;;28.98;9.90;;;23.70;94.80;;;;;;7402733;19;19910;-71
2023/09/18 06:13:27;;;;;;;25.95;7.47;;;23.70;94.80;;;;;;7400895;19;19915;-73
2023/09/18 06:15:55;;;;;;;20.65;7.32;;;23.60;94.40;;;;;;7401735;19;19933;-72
2023/09/18 06:18:21;;;;;;;23.33;7.60;;;23.60;94.10;;;;;;7400991;19;19922;-72
2023/09/18 06:20:50;;;;;;;22.38;6.40;;;23.50;93.90;;;;;;7401223;19;20331;-71
2023/09/18 06:23:16;;;;;;;26.08;8.38;;;23.50;93.90;;;;;;7397687;19;19929;-72
2023/09/18 06:25:42;;;;;;;21.45;7.50;;;23.50;93.50;;;;;;7401573;19;20352;-71
2023/09/18 06:28:07;;;;;;;17.13;5.90;;;23.50;92.70;;;;;;7401902;19;19918;-72
2023/09/18 06:30:34;;;;;;;15.15;6.40;;;23.50;92.10;;;;;;7401021;19;19922;-73
2023/09/18 06:33:01;;;;;;;16.40;6.70;;;23.50;92.00;;;;;;7402741;19;19915;-72
2023/09/18 06:35:27;;;;;;;23.15;7.18;;;23.50;92.20;;;;;;7400627;19;20327;-73
2023/09/18 06:37:54;;;;;;;21.08;6.05;;;23.50;92.20;;;;;;7403294;19;19995;-72
2023/09/18 06:40:25;;;;;;;20.80;6.00;;;23.50;92.00;;;;;;7401684;19;19923;-73
2023/09/18 06:42:52;;;;;;;15.93;6.13;;;23.50;91.90;;;;;;7401269;19;19914;-72
2023/09/18 06:45:17;;;;;;;16.13;6.55;;;23.60;91.60;;;;;;7378165;19;20405;-72
2023/09/18 06:47:43;;;;;;;17.75;6.28;;;23.70;91.30;;;;;;7399582;19;19922;-71
2023/09/18 06:50:11;;;;;;;16.08;6.03;;;23.80;90.90;;;;;;7396711;19;19942;-73
2023/09/18 06:52:37;;;;;;;14.88;5.85;;;23.80;90.70;;;;;;7401228;19;19939;-73
2023/09/18 06:55:03;;;;;;;15.48;5.60;;;23.80;90.60;;;;;;7379522;19;20414;-72
2023/09/18 06:57:29;;;;;;;14.60;5.22;;;23.90;90.40;;;;;;7400580;19;20525;-73
2023/09/18 06:59:55;;;;;;;14.38;5.40;;;23.90;90.00;;;;;;7400274;19;19910;-74
2023/09/18 07:02:20;;;;;;;17.20;5.30;;;23.90;89.50;;;;;;7233311;19;3205720;-72
2023/09/18 07:04:46;;;;;;;13.50;5.80;;;24.00;88.90;;;;;;7402393;19;19977;-72
2023/09/18 07:07:13;;;;;;;17.02;5.88;;;23.90;88.40;;;;;;7403664;19;20349;-71
2023/09/18 07:09:41;;;;;;;17.48;5.70;;;23.90;88.50;;;;;;7401407;19;19915;-71
2023/09/18 07:12:08;;;;;;;16.10;5.85;;;23.90;88.20;;;;;;7402437;19;19923;-72
2023/09/18 07:14:34;;;;;;;18.45;6.13;;;24.00;88.30;;;;;;7404582;19;20506;-72
2023/09/18 07:17:01;;;;;;;18.35;5.85;;;24.00;88.40;;;;;;7402161;19;19914;-71
2023/09/18 07:19:26;;;;;;;19.58;7.22;;;24.00;88.30;;;;;;7394792;19;19915;-71
2023/09/18 07:21:52;;;;;;;16.85;5.72;;;24.00;87.80;;;;;;7397769;19;19922;-71
2023/09/18 07:24:20;;;;;;;19.77;6.50;;;24.20;87.80;;;;;;7379061;19;20306;-71
2023/09/18 07:26:47;;;;;;;23.55;5.88;;;24.20;87.00;;;;;;7400571;19;19984;-71
2023/09/18 07:29:15;;;;;;;20.92;6.57;;;24.30;86.50;;;;;;7400512;19;19933;-71
2023/09/18 07:31:42;;;;;;;15.85;5.85;;;24.50;85.90;;;;;;7382334;19;19926;-72
2023/09/18 07:34:09;;;;;;;22.58;6.80;;;24.70;84.00;;;;;;7399270;19;19918;-71
2023/09/18 07:36:34;;;;;;;;;;;25.00;83.10;;;;;;7405847;19;19982;-72
2023/09/18 07:39:00;;;;;;;16.10;5.60;;;24.90;81.90;;;;;;7402205;19;19922;-71
2023/09/18 07:41:26;;;;;;;16.52;5.72;;;24.80;81.30;;;;;;7400873;19;19918;-71
2023/09/18 07:43:51;;;;;;;20.25;6.28;;;25.00;80.90;;;;;;7401061;19;20426;-71
2023/09/18 07:46:18;;;;;;;17.83;6.75;;;25.00;79.70;;;;;;7401495;19;20338;-72
2023/09/18 07:48:43;;;;;;;;;;;25.10;78.90;;;;;;7382466;19;19922;-71
2023/09/18 07:51:13;;;;;;;19.80;6.85;;;25.00;78.90;;;;;;7398324;19;19917;-72
2023/09/18 07:53:39;;;;;;;18.00;6.25;;;24.80;79.00;;;;;;7390508;19;19930;-72
2023/09/18 07:56:05;;;;;;;17.13;5.68;;;25.00;79.50;;;;;;7389631;19;20263;-71
2023/09/18 07:58:33;;;;;;;15.23;5.32;;;25.00;78.30;;;;;;7399748;19;19918;-71
2023/09/18 08:00:59;;;;;;;17.50;5.57;;;24.80;77.90;;;;;;7394009;19;19921;-72
2023/09/18 08:03:26;;;;;;;18.83;6.75;;;24.90;78.40;;;;;;7391933;19;20010;-72
2023/09/18 08:05:55;;;;;;;17.40;5.05;;;24.50;76.10;;;;;;7386128;19;19933;-72
2023/09/18 08:08:23;;;;;;;15.43;4.97;;;24.70;75.10;;;;;;7392018;19;19927;-72
2023/09/18 08:10:49;;;;;;;18.85;5.63;;;24.80;72.00;;;;;;7395085;19;19919;-72
2023/09/18 08:13:16;;;;;;;15.50;4.78;;;25.00;70.70;;;;;;7397042;19;19921;-71
2023/09/18 08:15:43;;;;;;;12.90;3.15;;;25.00;69.60;;;;;;7398711;19;19947;-72
2023/09/18 08:18:15;;;;;;;8.70;3.95;;;24.90;65.60;;;;;;7397274;19;19946;-72
2023/09/18 08:20:42;;;;;;;9.07;3.40;;;24.90;63.00;;;;;;7396880;19;19914;-72
2023/09/18 08:23:09;;;;;;;8.63;3.10;;;25.00;60.90;;;;;;7398612;19;20363;-71
2023/09/18 08:25:36;;;;;;;7.32;3.53;;;25.30;60.10;;;;;;7394492;19;19925;-72
2023/09/18 08:28:03;;;;;;;9.52;3.95;;;26.40;55.90;;;;;;7395191;19;19938;-71
2023/09/18 08:30:29;;;;;;;;;;;26.80;52.70;;;;;;7393804;19;19914;-72
2023/09/18 08:32:54;;;;;;;8.35;3.30;;;27.20;50.20;;;;;;7397961;19;19931;-72
2023/09/18 08:35:21;;;;;;;5.57;2.53;;;27.40;48.70;;;;;;7392452;19;19957;-71
2023/09/18 08:37:47;;;;;;;5.97;3.25;;;27.30;45.80;;;;;;7387759;19;19929;-71
2023/09/18 08:40:14;;;;;;;5.25;2.80;;;27.90;43.80;;;;;;7375525;19;19914;-72
2023/09/18 08:42:45;;;;;;;6.50;2.78;;;28.20;41.80;;;;;;7385961;19;20504;-71
2023/09/18 08:45:22;;;;;;;5.07;3.72;;;28.40;40.90;;;;;;7380463;19;20347;-72
2023/09/18 08:47:49;;;;;;;5.88;2.72;;;28.70;39.00;;;;;;7387426;19;20350;-72
2023/09/18 08:50:15;;;;;;;6.70;3.08;;;28.30;38.80;;;;;;7390979;19;19978;-71
2023/09/18 08:52:41;;;;;;;;;;;28.70;38.10;;;;;;7395643;19;19995;-73
2023/09/18 08:55:08;;;;;;;5.88;2.70;;;29.10;37.00;;;;;;7394693;19;20303;-72
2023/09/18 08:57:36;;;;;;;6.95;3.15;;;29.50;35.10;;;;;;7393694;19;19921;-73
2023/09/18 09:00:06;;;;;;;6.07;3.47;;;29.10;35.20;;;;;;7397319;19;19915;-72
2023/09/18 09:02:33;;;;;;;6.40;3.53;;;29.10;35.80;;;;;;7397318;19;19926;-72
2023/09/18 09:04:59;;;;;;;6.60;2.42;;;29.00;35.70;;;;;;7389453;19;20362;-73
2023/09/18 09:07:28;;;;;;;7.45;3.47;;;28.90;35.10;;;;;;7400384;19;20485;-73
2023/09/18 09:09:54;;;;;;;6.63;2.95;;;29.70;34.30;;;;;;7396563;19;20347;-72
2023/09/18 09:12:39;;;;;;;;;;;29.90;33.20;;;;;;7394893;19;19919;-71
2023/09/18 09:15:05;;;;;;;7.07;3.50;;;30.20;31.60;;;;;;7391735;19;19927;-72
2023/09/18 09:17:31;;;;;;;6.45;3.67;;;30.10;30.90;;;;;;7396433;19;19978;-73
2023/09/18 09:20:07;;;;;;;;;;;29.70;30.60;;;;;;7398550;19;20670;-72
2023/09/18 09:22:34;;;;;;;;;;;30.00;29.80;;;;;;7396839;19;19922;-71
2023/09/18 09:24:59;;;;;;;6.07;2.92;;;30.10;29.20;;;;;;7386893;19;20252;-72
2023/09/18 09:27:25;;;;;;;;;;;30.30;29.00;;;;;;7385230;19;19926;-71
2023/09/18 09:30:00;;;;;;;5.03;3.05;;;29.60;28.30;;;;;;7391057;19;19919;-72
2023/09/18 09:32:31;;;;;;;7.88;3.97;;;29.40;28.10;;;;;;7382288;19;19915;-72
2023/09/18 09:35:02;;;;;;;4.90;3.35;;;29.80;28.90;;;;;;7393993;19;19915;-74
2023/09/18 09:37:31;;;;;;;6.38;3.00;;;30.30;27.30;;;;;;7382551;19;19919;-72
2023/09/18 09:40:08;;;;;;;5.93;3.20;;;29.90;27.30;;;;;;7400017;19;20278;-72
2023/09/18 09:42:39;;;;;;;5.63;3.05;;;30.20;27.30;;;;;;7392907;19;19915;-72
2023/09/18 09:45:12;;;;;;;5.65;3.78;;;30.00;27.20;;;;;;7388689;19;19922;-73
2023/09/18 09:47:38;;;;;;;5.93;3.22;;;30.60;26.80;;;;;;7399243;19;19942;-72
2023/09/18 09:50:09;;;;;;;6.10;3.67;;;30.30;26.90;;;;;;7395927;19;19914;-72
2023/09/18 09:52:37;;;;;;;7.43;3.40;;;29.00;26.60;;;;;;7401214;19;19910;-72
2023/09/18 09:55:05;;;;;;;6.35;3.72;;;28.70;28.40;;;;;;7404311;19;19915;-72
2023/09/18 09:57:46;;;;;;;7.68;3.03;;;29.00;28.30;;;;;;7394130;19;19918;-72
2023/09/18 10:00:26;;;;;;;7.35;3.33;;;29.20;28.40;;;;;;7394462;19;19943;-72
2023/09/18 10:02:56;;;;;;;6.45;3.90;;;29.00;28.30;;;;;;7396533;19;19919;-72
2023/09/18 10:05:31;;;;;;;6.72;2.88;;;29.00;28.00;;;;;;7393715;19;19931;-72
2023/09/18 10:08:04;;;;;;;4.60;2.75;;;28.90;27.80;;;;;;7394057;19;19991;-72
2023/09/18 10:10:32;;;;;;;11.55;4.50;;;28.80;27.50;;;;;;7403763;19;19907;-72
2023/09/18 10:13:05;;;;;;;7.43;3.30;;;28.80;27.70;;;;;;7402813;19;19944;-72
2023/09/18 10:15:37;;;;;;;10.57;4.32;;;28.90;28.00;;;;;;7402577;19;19927;-73
2023/09/18 10:18:10;;;;;;;6.32;2.58;;;29.30;27.30;;;;;;7395977;19;20260;-72
2023/09/18 10:20:43;;;;;;;7.72;2.42;;;29.60;27.10;;;;;;7403712;19;19915;-73
2023/09/18 10:23:27;;;;;;;6.63;2.88;;;29.60;26.80;;;;;;7400986;19;20335;-73
2023/09/18 10:25:59;;;;;;;6.45;3.38;;;29.80;26.60;;;;;;7401265;19;19910;-73
2023/09/18 10:28:31;;;;;;;7.07;3.47;;;30.40;26.70;;;;;;7401387;19;19915;-72
2023/09/18 10:30:59;;;;;;;6.63;3.55;;;30.50;26.20;;;;;;7401510;19;19935;-73
2023/09/18 10:33:25;;;;;;;5.07;3.55;;;30.50;25.80;;;;;;7402220;19;19921;-72
2023/09/18 10:35:53;;;;;;;5.95;2.92;;;30.70;25.60;;;;;;7401208;19;19917;-72
2023/09/18 10:38:19;;;;;;;4.82;2.90;;;30.40;25.60;;;;;;7400021;19;19918;-73
2023/09/18 10:40:47;;;;;;;5.57;3.45;;;30.70;25.50;;;;;;7397869;19;19915;-72
2023/09/18 10:43:17;;;;;;;6.60;3.17;;;30.60;25.50;;;;;;7402547;19;19934;-72
2023/09/18 10:45:44;;;;;;;7.15;2.63;;;30.80;25.50;;;;;;7380962;19;20264;-73
2023/09/18 10:48:13;;;;;;;8.38;3.47;;;30.10;25.30;;;;;;7399308;19;20450;-72
2023/09/18 10:50:40;;;;;;;6.22;3.05;;;30.10;25.50;;;;;;7398447;19;19922;-73
2023/09/18 10:53:06;;;;;;;5.45;2.88;;;29.80;25.40;;;;;;7390473;19;19922;-71
2023/09/18 10:55:33;;;;;;;;;;;29.60;25.80;;;;;;7395964;19;19918;-73
2023/09/18 10:58:00;;;;;;;8.63;3.53;;;30.50;25.50;;;;;;7393077;19;19913;-73
2023/09/18 11:00:27;;;;;;;6.85;3.33;;;30.80;24.50;;;;;;7363011;19;20010;-72
2023/09/18 11:03:08;;;;;;;8.70;3.55;;;30.90;24.90;;;;;;7398311;19;19918;-73
2023/09/18 11:05:35;;;;;;;5.70;3.42;;;31.10;24.90;;;;;;7398299;19;19974;-73
2023/09/18 11:08:26;;;;;;;9.85;5.35;;;31.10;24.00;;;;;;7374395;19;19922;-72
2023/09/18 11:11:04;;;;;;;8.50;3.60;;;31.60;23.90;;;;;;7399284;19;19921;-72
2023/09/18 11:13:36;;;;;;;5.32;3.10;;;32.00;22.60;;;;;;7388592;19;19922;-71
2023/09/18 11:16:28;;;;;;;6.80;2.92;;;32.20;22.40;;;;;;7395927;19;19921;-72
2023/09/18 11:19:10;;;;;;;7.78;3.17;;;32.00;22.10;;;;;;7397974;19;19980;-71
2023/09/18 11:21:36;;;;;;;6.45;3.08;;;32.10;22.20;;;;;;7378422;19;19974;-74
2023/09/18 11:24:03;;;;;;;5.55;4.05;;;31.30;22.60;;;;;;7398752;19;19957;-74
2023/09/18 11:26:31;;;;;;;5.50;2.97;;;31.30;22.80;;;;;;7399952;19;20011;-72
2023/09/18 11:29:10;;;;;;;4.85;3.42;;;30.90;22.70;;;;;;7389067;19;20355;-71
2023/09/18 11:31:47;;;;;;;4.93;2.83;;;31.10;23.30;;;;;;7397812;19;20367;-71
2023/09/18 11:34:26;;;;;;;5.25;3.45;;;30.10;24.00;;;;;;7392280;19;19914;-72
2023/09/18 11:36:52;;;;;;;6.40;2.95;;;29.50;25.10;;;;;;7387920;19;19918;-72
2023/09/18 11:39:40;;;;;;;7.75;3.53;;;29.60;25.00;;;;;;7389960;19;20023;-71
2023/09/18 11:42:11;;;;;;;6.43;3.63;;;30.50;24.50;;;;;;7398470;19;19931;-73
2023/09/18 11:44:41;;;;;;;6.15;3.45;;;31.50;23.20;;;;;;7398172;19;19925;-72
2023/09/18 11:47:16;;;;;;;6.57;3.40;;;32.20;22.80;;;;;;7389830;19;20583;-71
2023/09/18 11:49:50;;;;;;;10.07;3.38;;;31.70;21.80;;;;;;7394533;19;20326;-72
2023/09/18 11:52:17;;;;;;;8.35;4.25;;;32.00;22.30;;;;;;7387235;19;19927;-72
2023/09/18 11:54:46;;;;;;;5.50;3.17;;;32.90;21.50;;;;;;7396986;19;20354;-72
2023/09/18 11:57:14;;;;;;;6.72;3.55;;;32.60;20.80;;;;;;7395206;19;19990;-71
2023/09/18 11:59:46;;;;;;;6.78;4.32;;;32.50;20.80;;;;;;7392763;19;19974;-71
2023/09/18 12:02:41;;;;;;;6.95;3.65;;;32.00;21.50;;;;;;7384902;19;19926;-72
2023/09/18 12:05:20;;;;;;;6.18;4.05;;;32.70;21.20;;;;;;7389420;19;19966;-72
2023/09/18 12:07:47;;;;;;;7.05;3.50;;;32.40;20.70;;;;;;7388096;19;20240;-72
2023/09/18 12:10:18;;;;;;;5.57;4.25;;;32.50;20.50;;;;;;7395908;19;19976;-71
2023/09/18 12:12:45;;;;;;;5.68;3.90;;;32.60;20.10;;;;;;7392624;19;19931;-73
2023/09/18 12:15:16;;;;;;;6.07;3.58;;;33.80;19.90;;;;;;7381709;19;19990;-72
2023/09/18 12:17:42;;;;;;;4.75;3.60;;;34.20;19.30;;;;;;7386542;19;19926;-71
2023/09/18 12:20:18;;;;;;;8.63;4.00;;;32.20;19.90;;;;;;7398210;19;19982;-74
2023/09/18 12:22:50;;;;;;;5.28;3.72;;;32.80;20.60;;;;;;7395156;19;20404;-71
2023/09/18 12:25:18;;;;;;;5.43;3.50;;;33.00;19.90;;;;;;7392640;19;20279;-72
2023/09/18 12:27:44;;;;;;;6.20;3.72;;;32.40;20.20;;;;;;7393928;19;20239;-72
2023/09/18 12:30:12;;;;;;;5.78;3.83;;;32.60;19.60;;;;;;7386568;19;19951;-71
2023/09/18 12:32:38;;;;;;;6.15;3.50;;;32.50;19.70;;;;;;7395433;19;19929;-72
2023/09/18 12:35:06;;;;;;;5.35;4.25;;;33.00;19.00;;;;;;7393385;19;19937;-73
2023/09/18 12:37:41;;;;;;;6.07;3.97;;;33.30;18.70;;;;;;7389944;19;19918;-71
2023/09/18 12:40:25;;;;;;;5.35;3.05;;;32.30;19.20;;;;;;7387521;19;20612;-72
2023/09/18 12:42:51;;;;;;;5.55;4.18;;;33.00;17.50;;;;;;7393530;19;19919;-73
2023/09/18 12:45:17;;;;;;;4.88;3.83;;;33.40;17.30;;;;;;7368711;19;19922;-72
2023/09/18 12:47:44;;;;;;;5.05;3.05;;;33.90;16.40;;;;;;7391913;19;20319;-74